Tiempo atmosférico en la estación meteorológica de Bailo, Huesca (722 m.)

Fecha
DESCASC
Temp. máxima en grados centígrados (hora)
DESCASC
Temp. mínima en grados centígrados (hora)
DESCASC
Temp. media en grados centígrados
DESCASC
Racha de viento máxima en m/sg (hora)
DESCASC
Velocidad máxima media en intervalos de 10 minutos(hora)
DESCASC
Precipitaciones diarias en mm
DESCASC
Precipitaciones de 00:00 a 06:00 en mm
DESCASC
Precipitaciones de 06:00 a 12:00 en mm
DESCASC
Precipitaciones de 12:00 a 18:00 en mm
DESCASC
Precipitaciones de 18:00 a 24:00 en mm
DESCASC
10-12-2017 9.2 (15:30) 3.2 (00:50) 6.2 14.17 (19:20) 10.28 (20:00) 9.8 1 0.6 7.4 0.8
09-12-2017 8.4 (14:10) 2.6 (08:10) 5.5 13.33 (04:20) 8.89 (04:20) 5.6 0 0 0 5.6
08-12-2017 10.1 (13:10) 1.8 (07:20) 6 12.5 (14:10) 9.44 (14:10) 1.2 0.4 0.6 0.2 0
07-12-2017 8.8 (16:20) -3.3 (-00:0) 2.8 4.17 (10:40) 2.78 (10:40) 0 0 0 0 0
06-12-2017 9.7 (15:40) -3.6 (-00:0) 3 2.78 (14:00) 1.67 (17:00) 0 0 0 0 0
05-12-2017 8.9 (15:30) -4.1 (-00:0) 2.4 2.78 (13:20) 1.67 (17:10) 0 0 0 0 0
04-12-2017 9.8 (15:50) -2 (-00:0) 3.9 4.72 (15:00) 2.78 (15:00) 0 0 0 0 0
03-12-2017 7 (11:50) -1 (-00:0) 3 12.5 (15:30) 8.33 (15:40) 0 0 0 0 0
02-12-2017 3 (14:00) -2.2 (-00:0) 0.4 18.89 (15:30) 13.06 (16:20) 0 0 0 0 0
01-12-2017 2.3 (02:40) -1.1 (-00:0) 0.6 14.72 (13:40) 10 (13:10) 1.4 0.2 1.2 0 0
30-11-2017 6.6 (13:40) -1.3 (-00:0) 2.6 14.17 (12:50) 9.72 (12:40) 0 0 0 0 0
29-11-2017 8.7 (14:40) 1.3 (00:00) 5 14.17 (14:00) 10.28 (14:00) 0 0 0 0 0
28-11-2017 10.4 (15:20) -3 (-00:0) 3.7 8.61 (15:50) 6.39 (17:50) 0 0 0 0 0
27-11-2017 9.6 (15:30) -2.4 (-00:0) 3.6 3.61 (15:10) 1.67 (17:40) 0 0 0 0 0
26-11-2017 8.7 (13:40) 1.3 (00:00) 5 15.28 (14:40) 10.56 (13:30) 0 0 0 0 0
25-11-2017 11.1 (11:10) 4.1 (00:00) 7.6 17.78 (18:20) 13.06 (14:30) 2 1.8 0.2 0 0
24-11-2017 14.5 (13:40) 9.7 (00:00) 12.1 7.78 (04:10) 5.83 (02:50) 0.6 0 0 0.2 0.4
23-11-2017 17.2 (15:40) 8.8 (00:00) 13 10.83 (10:30) 7.78 (10:50) 0 0 0 0 0
22-11-2017 16.5 (14:40) 2.1 (00:00) 9.3 11.39 (21:50) 8.61 (21:50) 0 0 0 0 0
21-11-2017 16.4 (15:40) 1.2 (00:00) 8.8 2.78 (23:59) 1.67 (16:20) 0 0 0 0 0
20-11-2017 16.6 (15:20) -0.2 (00:00) 8.2 2.5 (18:20) 1.67 (19:20) 0 0 0 0 0
19-11-2017 14.8 (15:40) -0.7 (-00:0) 7.1 2.5 (14:00) 1.67 (00:30) 0 0 0 0 0
18-11-2017 15.8 (15:40) 2.1 (00:00) 9 4.17 (16:10) 3.33 (16:10) 0 0 0 0 0
17-11-2017 17.3 (14:40) 3 (00:00) 10.1 3.61 (15:00) 2.78 (15:00) 0 0 0 0 0
16-11-2017 15.4 (15:20) -0.2 (00:00) 7.6 3.33 (13:30) 2.22 (22:50) 0 0 0 0 0
15-11-2017 12.4 (14:50) -1.9 (-00:0) 5.2 2.78 (14:20) 1.67 (08:30) 0 0 0 0 0

Gráficas

Temp. máximas Temp. mínimas Temp. medias Precipitaciones Rachas de viento máximas Velocidades máximas media en intervalos de 10 minutos

Datos horarios

Fecha y hora oficial Temperatura (ºC) Velocidad del viento (km/h) Dirección del viento Racha (km/h) Dirección de racha Precipitación (mm) Presión (hPa) Tendencia (hPa) Humedad (%)
2017-12-14 23:00:00 6.1 0 Calma 8 Noroeste 0.6 -- -- 96
2017-12-14 22:00:00 6.1 4 Oeste 7 Noroeste 0 -- -- 95
2017-12-14 21:00:00 6.2 3 Sudoeste 9 Sudeste 0 -- -- 94
2017-12-14 20:00:00 6.2 5 Sudoeste 8 Sudeste 0 -- -- 92
2017-12-14 19:00:00 7.3 0 Calma 7 Sudoeste 0 -- -- 92
2017-12-14 18:00:00 7.7 3 Sur 5 Sur 0 -- -- 90
2017-12-14 17:00:00 8.2 3 Sur 4 Sur 0.2 -- -- 88
2017-12-14 16:00:00 8.6 0 Calma 5 Oeste 0 -- -- 83
2017-12-14 15:00:00 8.6 2 Oeste 8 Nordeste 0 -- -- 80
2017-12-14 14:00:00 8.7 0 Calma 6 Este 0 -- -- 79
2017-12-14 13:00:00 8.7 5 Este 9 Este 0 -- -- 78
2017-12-14 12:00:00 8.2 3 Sudeste 7 Sudeste 0 -- -- 86
2017-12-14 11:00:00 7.3 2 Noroeste 9 Oeste 0 -- -- 95
2017-12-14 10:00:00 6.4 6 Oeste 10 Oeste 0 -- -- 98
2017-12-14 09:00:00 5.6 6 Oeste 8 Oeste 0.4 -- -- 98
2017-12-14 08:00:00 4.7 3 Oeste 6 Noroeste 0.4 -- -- 97
2017-12-14 07:00:00 5.1 2 Oeste 5 Sur 0.2 -- -- 98
2017-12-14 06:00:00 4.5 4 Noroeste 8 Noroeste 1.2 -- -- 97
2017-12-14 05:00:00 5.2 2 Sur 6 Sur 0.6 -- -- 98
2017-12-14 04:00:00 4.7 2 Norte 6 Sudoeste 0.8 -- -- 97
2017-12-14 03:00:00 4 5 Sudeste 6 Sudeste 0.6 -- -- 97
2017-12-14 02:00:00 3.8 0 Calma 5 Sudoeste 0 -- -- 96
2017-12-14 01:00:00 3.5 3 Oeste 6 Oeste 0.6 -- -- 96
2017-12-14 00:00:00 3.1 3 Este 6 Este 0.2 -- -- 95
2017-12-13 23:00:00 3.1 0 Calma 6 Sudeste 0.4 -- -- 94
2017-12-13 22:00:00 3.5 2 Sudeste 6 Este 0.2 -- -- 91
2017-12-13 21:00:00 3.6 4 Noroeste 8 Noroeste 0 -- -- 87
2017-12-13 20:00:00 3.8 2 Norte 4 Noroeste 0 -- -- 85
2017-12-13 19:00:00 3.9 2 Este 5 Noroeste 0 -- -- 83
2017-12-13 18:00:00 4 0 Calma 5 Norte 0 -- -- 80
2017-12-13 17:00:00 4.6 0 Calma 4 Oeste 0 -- -- 79
2017-12-13 16:00:00 4.7 3 Noroeste 6 Noroeste 0 -- -- 79
2017-12-13 15:00:00 4.2 2 Norte 6 Noroeste 0 -- -- 81
2017-12-13 14:00:00 3.3 4 Nordeste 12 Noroeste 0 -- -- 80
2017-12-13 13:00:00 2.1 2 Sur 8 Sudeste 0 -- -- 82
2017-12-13 12:00:00 0.6 3 Sudoeste 6 Sudoeste 0 -- -- 90
2017-12-13 11:00:00 -0.5 3 Norte 6 Noroeste 0 -- -- 92
2017-12-13 10:00:00 -1.3 0 Calma 4 Sudeste 0 -- -- 93
2017-12-13 09:00:00 -2.5 0 Calma 7 Noroeste 0 -- -- 93
2017-12-13 08:00:00 -2.3 3 Nordeste 9 Sur 0 -- -- 93
2017-12-13 07:00:00 -3 3 Noroeste 4 Noroeste 0 -- -- 92
2017-12-13 06:00:00 -2.8 0 Calma 6 Noroeste 0 -- -- 93
2017-12-13 05:00:00 -2.4 3 Oeste 6 Oeste 0 -- -- 92
2017-12-13 04:00:00 -2.4 3 Noroeste 5 Noroeste 0 -- -- 91
2017-12-13 03:00:00 -2.1 0 Calma 5 Oeste 0 -- -- 91
2017-12-13 02:00:00 -1.6 3 Norte 5 Sudoeste 0 -- -- 89
2017-12-13 01:00:00 -1.3 0 Calma 4 Oeste 0 -- -- 88
2017-12-13 00:00:00 -0.9 3 Nordeste 7 Sudoeste 0 -- -- 86
2017-12-12 23:00:00 -0.3 3 Norte 7 Oeste 0 -- -- 85
2017-12-12 22:00:00 0.2 3 Oeste 7 Sur 0 -- -- 85
2017-12-12 21:00:00 1.3 5 Noroeste 7 Noroeste 0 -- -- 83
2017-12-12 20:00:00 1.7 3 Oeste 9 Sudoeste 0 -- -- 79
2017-12-12 19:00:00 1.9 8 Noroeste 12 Noroeste 0 -- -- 78
2017-12-12 18:00:00 3.1 6 Noroeste 20 Oeste 0 -- -- 71
2017-12-12 17:00:00 4.1 15 Oeste 29 Noroeste 0 -- -- 68
2017-12-12 16:00:00 6.5 18 Noroeste 32 Noroeste 0 -- -- 51
2017-12-12 15:00:00 6.5 22 Noroeste 34 Oeste 0 -- -- 51
2017-12-12 14:00:00 6.2 23 Noroeste 35 Noroeste 0 -- -- 52
2017-12-12 13:00:00 5.7 22 Noroeste 39 Noroeste 0 -- -- 59
2017-12-12 12:00:00 4.7 24 Noroeste 36 Noroeste 0 -- -- 66
2017-12-12 11:00:00 3.8 27 Noroeste 37 Noroeste 0 -- -- 69
2017-12-12 10:00:00 2.8 24 Noroeste 38 Noroeste 0 -- -- 72
2017-12-12 09:00:00 2 23 Noroeste 36 Noroeste 0 -- -- 75
2017-12-12 08:00:00 1.3 25 Noroeste 35 Noroeste 0 -- -- 80
2017-12-12 07:00:00 1.1 19 Noroeste 33 Noroeste 0 -- -- 86
2017-12-12 06:00:00 1.7 19 Noroeste 27 Noroeste 0 -- -- 83
2017-12-12 05:00:00 1.5 15 Noroeste 24 Noroeste 0 -- -- 88
2017-12-12 04:00:00 1.7 9 Noroeste 24 Noroeste 0 -- -- 88
2017-12-12 03:00:00 1.9 9 Nordeste 18 Noroeste 0 -- -- 87
2017-12-12 02:00:00 2.3 14 Noroeste 22 Noroeste 0 -- -- 86
2017-12-12 01:00:00 2.4 4 Norte 15 Noroeste 0 -- -- 86
2017-12-12 00:00:00 2.4 7 Norte 14 Noroeste 0 -- -- 85
2017-12-11 23:00:00 2.5 4 Oeste 26 Noroeste 0 -- -- 85
2017-12-11 22:00:00 2.8 20 Noroeste 35 Noroeste 0 -- -- 87
2017-12-11 21:00:00 3.1 18 Noroeste 31 Noroeste 1.6 -- -- 92
2017-12-11 20:00:00 3.2 2 Sudoeste 21 Noroeste 0.8 -- -- 90
2017-12-11 19:00:00 3.8 10 Noroeste 15 Noroeste 0.8 -- -- 89
2017-12-11 18:00:00 4.2 7 Norte 42 Noroeste 0.2 -- -- 85
2017-12-11 17:00:00 6.4 17 Noroeste 34 Oeste 0 -- -- 71
2017-12-11 16:00:00 7.5 24 Noroeste 34 Oeste 0 -- -- 67
2017-12-11 15:00:00 6.9 17 Noroeste 27 Noroeste 0 -- -- 74
2017-12-11 14:00:00 6.7 13 Oeste 30 Oeste 0 -- -- 78
2017-12-11 13:00:00 5.5 2 Sur 8 Este 0 -- -- 91
2017-12-11 12:00:00 4.1 0 Calma 20 Noroeste 0.6 -- -- 93
2017-12-11 11:00:00 5 8 Oeste 24 Noroeste 0.4 -- -- 89
2017-12-11 10:00:00 5.1 9 Sudoeste 19 Sur 0 -- -- 89
2017-12-11 09:00:00 4.8 9 Sudeste 19 Oeste 1.6 -- -- 93
2017-12-11 08:00:00 5.6 15 Oeste 24 Oeste 1.8 -- -- 88
2017-12-11 07:00:00 6.6 4 Noroeste 10 Nordeste 0.2 -- -- 92
2017-12-11 06:00:00 6.8 4 Nordeste 26 Oeste 0.4 -- -- 92
2017-12-11 05:00:00 7.7 23 Oeste 49 Oeste 4.2 -- -- 86
2017-12-11 04:00:00 8.7 23 Sur 52 Sur 2.2 -- -- 88
2017-12-11 03:00:00 8.8 27 Sur 49 Sur -- -- -- 87
2017-12-11 02:00:00 8.9 19 Sudeste 41 Sudeste 1 -- -- 84
2017-12-11 01:00:00 9 20 Sur 39 Sudeste 0.8 -- -- 86
2017-12-11 00:00:00 9.1 23 Sur 41 Sur 0 -- -- 85
2017-12-10 23:00:00 8.7 21 Sur 44 Sudeste 0 -- -- 88
2017-12-10 22:00:00 8.6 26 Sudeste 45 Sur 0 -- -- 86
2017-12-10 21:00:00 8.3 29 Sudeste 49 Sur 0 -- -- 88
2017-12-10 20:00:00 8.1 37 Sur 51 Sur 0.2 -- -- 89
2017-12-10 19:00:00 8.2 31 Sur 47 Sur 0.6 -- -- 89
2017-12-10 18:00:00 8.2 25 Sur 39 Sur 1.2 -- -- 90
2017-12-10 17:00:00 8.2 22 Sur 37 Sur 2.8 -- -- 90
2017-12-10 16:00:00 8.8 15 Sudoeste 36 Sudoeste 1.4 -- -- 88
2017-12-10 15:00:00 8.8 16 Sudoeste 31 Sudoeste 0.8 -- -- 88
2017-12-10 14:00:00 7.6 17 Sur 29 Sur 0.4 -- -- 91
2017-12-10 13:00:00 7.8 12 Sur 22 Sudeste 0.8 -- -- 90
2017-12-10 12:00:00 7.6 7 Sur 22 Sur 0.6 -- -- 90
2017-12-10 11:00:00 7.7 14 Sur 21 Sur 0 -- -- 89
2017-12-10 10:00:00 7 4 Sudoeste 8 Sur 0 -- -- 95
2017-12-10 09:00:00 5.9 7 Sur 8 Sudoeste 0 -- -- 98
2017-12-10 08:00:00 5.4 0 Calma 6 Sudoeste 0 -- -- 98
2017-12-10 07:00:00 3.7 4 Sudeste 5 Este 0 -- -- 97
2017-12-10 06:00:00 3.6 0 Calma 5 Sudeste 0 -- -- 97
2017-12-10 05:00:00 3.4 3 Este 5 Este 0.2 -- -- 97
2017-12-10 04:00:00 3.4 0 Calma 4 Oeste 0.2 -- -- 96
2017-12-10 03:00:00 3.3 0 Calma 5 Oeste 0 -- -- 96
2017-12-10 02:00:00 3.3 3 Este 8 Noroeste 0.4 -- -- 95
2017-12-10 01:00:00 3.2 4 Noroeste 9 Nordeste 0.2 -- -- 95
2017-12-10 00:00:00 3.5 0 Calma 19 Sur 0.8 -- -- 93
2017-12-09 23:00:00 3.8 11 Sur 19 Sur 1.2 -- -- 92
2017-12-09 22:00:00 3.5 4 Este 7 Sur 1 -- -- 93
2017-12-09 21:00:00 3.6 3 Norte 5 Sudeste 1 -- -- 92
2017-12-09 20:00:00 3.8 3 Sudeste 5 Sudeste 1.4 -- -- 91
2017-12-09 19:00:00 4.2 3 Oeste 5 Oeste 0.2 -- -- 86
2017-12-09 18:00:00 4.7 6 Oeste 18 Oeste 0 -- -- 81
2017-12-09 17:00:00 6.2 14 Noroeste 21 Noroeste 0 -- -- 66
2017-12-09 16:00:00 7.2 12 Norte 25 Norte 0 -- -- 57
2017-12-09 15:00:00 7.9 14 Noroeste 30 Noroeste 0 -- -- 52
2017-12-09 14:00:00 8.3 15 Noroeste 30 Noroeste 0 -- -- 50
2017-12-09 13:00:00 7.4 22 Noroeste 35 Noroeste 0 -- -- 50
2017-12-09 12:00:00 6.9 23 Noroeste 41 Noroeste 0 -- -- 52
2017-12-09 11:00:00 5.8 27 Noroeste 44 Noroeste 0 -- -- 55
2017-12-09 10:00:00 4.5 26 Noroeste 41 Oeste 0 -- -- 63
2017-12-09 09:00:00 2.8 27 Noroeste 36 Noroeste 0 -- -- 70
2017-12-09 08:00:00 2.8 24 Noroeste 38 Noroeste 0 -- -- 67
2017-12-09 07:00:00 2.9 26 Noroeste 41 Noroeste 0 -- -- 69
2017-12-09 06:00:00 3.1 26 Noroeste 44 Noroeste 0 -- -- 70
2017-12-09 05:00:00 2.9 24 Noroeste 48 Norte 0 -- -- 73
2017-12-09 04:00:00 3.5 26 Noroeste 42 Noroeste 0 -- -- 74
2017-12-09 03:00:00 3.7 26 Noroeste 41 Noroeste 0 -- -- 72
2017-12-09 02:00:00 4 25 Noroeste 43 Noroeste 0 -- -- 74
2017-12-09 01:00:00 4.2 26 Noroeste 36 Noroeste 0 -- -- 73
2017-12-09 00:00:00 4.3 27 Noroeste 41 Noroeste 0 -- -- 74
2017-12-08 23:00:00 4.6 26 Noroeste 41 Noroeste 0 -- -- 72
2017-12-08 22:00:00 4.4 24 Noroeste 45 Noroeste 0 -- -- 74
2017-12-08 21:00:00 4.8 26 Noroeste 38 Noroeste 0 -- -- 73
2017-12-08 20:00:00 5.2 30 Noroeste 42 Noroeste 0 -- -- 73
2017-12-08 19:00:00 5.6 26 Noroeste 40 Noroeste 0 -- -- 73
2017-12-08 18:00:00 6.6 22 Noroeste 34 Noroeste 0 -- -- 70
2017-12-08 17:00:00 7.7 24 Noroeste 41 Norte 0 -- -- 72
2017-12-08 16:00:00 9.4 28 Noroeste 39 Noroeste 0 -- -- 67
2017-12-08 15:00:00 9.5 30 Oeste 45 Noroeste 0.2 -- -- 70
2017-12-08 14:00:00 9.7 29 Noroeste 45 Noroeste 0 -- -- 72
2017-12-08 13:00:00 10 23 Noroeste 36 Noroeste 0 -- -- 73
2017-12-08 12:00:00 4.7 8 Sudeste 12 Sudeste 0 -- -- 96
2017-12-08 11:00:00 3.6 4 Este 7 Sudeste 0 -- -- 96
2017-12-08 10:00:00 2.7 3 Noroeste 6 Noroeste 0 -- -- 95
2017-12-08 09:00:00 2.1 4 Oeste 5 Sudoeste 0 -- -- 95
2017-12-08 08:00:00 2 3 Oeste 5 Sudeste 0.2 -- -- 94
2017-12-08 07:00:00 2 0 Calma 4 Este 0.4 -- -- 91
2017-12-08 06:00:00 2.1 4 Este 5 Este 0.4 -- -- 89
2017-12-08 05:00:00 2.6 3 Sudoeste 9 Noroeste 0 -- -- 80
2017-12-08 04:00:00 2.7 3 Oeste 5 Sudoeste 0 -- -- 76
2017-12-08 03:00:00 2.2 4 Sudoeste 6 Este 0 -- -- 77
2017-12-08 02:00:00 3 4 Sur 8 Sur 0 -- -- 71
2017-12-08 01:00:00 2.8 2 Nordeste 10 Este 0 -- -- 73
2017-12-08 00:00:00 2.4 2 Noroeste 5 Oeste 0 -- -- 73
2017-12-07 23:00:00 2.9 0 Calma 6 Noroeste 0 -- -- 69
2017-12-07 22:00:00 4 4 Noroeste 6 Noroeste 0 -- -- 68
2017-12-07 21:00:00 4 3 Noroeste 5 Noroeste 0 -- -- 67
2017-12-07 20:00:00 4.8 3 Sur 5 Sudoeste 0 -- -- 65
2017-12-07 19:00:00 5.2 4 Noroeste 4 Noroeste 0 -- -- 61
2017-12-07 18:00:00 5.6 0 Calma 6 Noroeste 0 -- -- 61
2017-12-07 17:00:00 5.9 4 Oeste 7 Oeste 0 -- -- 62
2017-12-07 16:00:00 8.3 0 Calma 9 Oeste 0 -- -- 55
2017-12-07 15:00:00 7.3 4 Noroeste 8 Noroeste 0 -- -- 57
2017-12-07 14:00:00 5.1 5 Este 8 Este 0 -- -- 65
2017-12-07 13:00:00 3.8 3 Norte 10 Noroeste 0 -- -- 72
2017-12-07 12:00:00 1.8 8 Noroeste 10 Noroeste 0 -- -- 85
2017-12-07 11:00:00 0.2 5 Norte 15 Sudeste 0 -- -- 92
2017-12-07 10:00:00 -1.2 3 Nordeste 8 Oeste 0 -- -- 94
2017-12-07 09:00:00 -2.4 5 Sudeste 10 Sudeste 0 -- -- 93
2017-12-07 08:00:00 -2.6 3 Oeste 8 Sudeste 0 -- -- 95
2017-12-07 07:00:00 -2.8 4 Noroeste 6 Norte 0 -- -- 92
2017-12-07 06:00:00 -2.5 3 Norte 5 Noroeste 0 -- -- 94
2017-12-07 05:00:00 -1.9 0 Calma 4 Sudeste 0 -- -- 94
2017-12-07 04:00:00 -2.5 2 Oeste 5 Oeste 0 -- -- 92
2017-12-07 03:00:00 -2.1 0 Calma 5 Sudoeste 0 -- -- 92
2017-12-07 02:00:00 -1.7 0 Calma 4 Sudeste 0 -- -- 91
2017-12-07 01:00:00 -1.1 3 Noroeste 5 Este 0 -- -- 90
2017-12-07 00:00:00 -0.4 0 Calma 6 Sudeste 0 -- -- 88
2017-12-06 23:00:00 -0.1 4 Este 6 Sudeste 0 -- -- 87
2017-12-06 22:00:00 0.7 3 Norte 4 Norte 0 -- -- 84
2017-12-06 21:00:00 1.4 0 Calma 4 Sudeste 0 -- -- 81
2017-12-06 20:00:00 2.3 2 Oeste 5 Sudoeste 0 -- -- 76
2017-12-06 19:00:00 4.1 3 Sudoeste 8 Sudoeste 0 -- -- 70
2017-12-06 18:00:00 4.7 5 Sudoeste 7 Sudoeste 0 -- -- 67
2017-12-06 17:00:00 6.1 6 Sudoeste 7 Sudoeste 0 -- -- 61
2017-12-06 16:00:00 9.7 3 Oeste 8 Noroeste 0 -- -- 52
2017-12-06 15:00:00 8.8 3 Nordeste 9 Noroeste 0 -- -- 52
2017-12-06 14:00:00 7.8 4 Norte 10 Noroeste 0 -- -- 58
2017-12-06 13:00:00 5.8 3 Este 6 Este 0 -- -- 69
2017-12-06 12:00:00 4 2 Sudeste 6 Este 0 -- -- 75
2017-12-06 11:00:00 1.4 0 Calma 5 Sudeste 0 -- -- 88
2017-12-06 10:00:00 -0.7 0 Calma 5 Sur 0 -- -- 95
2017-12-06 09:00:00 -2.9 0 Calma 5 Noroeste 0 -- -- 97
2017-12-06 08:00:00 -3.6 3 Noroeste 4 Noroeste 0 -- -- 95
2017-12-06 07:00:00 -3.2 0 Calma 5 Noroeste 0 -- -- 95
2017-12-06 06:00:00 -2.7 2 Oeste 4 Sudoeste 0 -- -- 95
2017-12-06 05:00:00 -2.6 0 Calma 3 Sudoeste 0 -- -- 94
2017-12-06 04:00:00 -2.6 0 Calma 4 Noroeste 0 -- -- 92
2017-12-06 03:00:00 -2 0 Calma 3 Oeste 0 -- -- 92
2017-12-06 02:00:00 -1.2 0 Calma 3 Sudeste 0 -- -- 92
2017-12-06 01:00:00 -1.3 2 Noroeste 4 Noroeste 0 -- -- 89
2017-12-06 00:00:00 -0.7 0 Calma 5 Noroeste 0 -- -- 88
2017-12-05 23:00:00 -0.1 0 Calma 4 Noroeste 0 -- -- 85
2017-12-05 22:00:00 0.9 0 Calma 2 Norte 0 -- -- 81
2017-12-05 21:00:00 1.1 3 Noroeste 8 Sudoeste 0 -- -- 80
2017-12-05 20:00:00 2.5 5 Sudoeste 9 Sudoeste 0 -- -- 75
2017-12-05 19:00:00 3.8 5 Sur 8 Sur 0 -- -- 71
2017-12-05 18:00:00 4.6 5 Sur 8 Sudoeste 0 -- -- 68
2017-12-05 17:00:00 5.9 5 Sudoeste 8 Sudoeste 0 -- -- 62
2017-12-05 16:00:00 8.9 3 Sudoeste 8 Noroeste 0 -- -- 53
2017-12-05 15:00:00 8.5 0 Calma 10 Norte 0 -- -- 53
2017-12-05 14:00:00 7.2 4 Nordeste 10 Noroeste 0 -- -- 57
2017-12-05 13:00:00 5.2 3 Norte 7 Nordeste 0 -- -- 62
2017-12-05 12:00:00 3.5 2 Sudeste 9 Este 0 -- -- 76
2017-12-05 11:00:00 0.7 2 Norte 6 Sudeste 0 -- -- 84
2017-12-05 10:00:00 -1.2 0 Calma 4 Sudoeste 0 -- -- 94
2017-12-05 09:00:00 -3.4 0 Calma 4 Oeste 0 -- -- 95
2017-12-05 08:00:00 -3.9 0 Calma 4 Norte 0 -- -- 93
2017-12-05 07:00:00 -3.8 4 Oeste 8 Sudoeste 0 -- -- 92
2017-12-05 06:00:00 -3.1 2 Este 4 Sudoeste 0 -- -- 92
2017-12-05 05:00:00 -3 0 Calma 3 Noroeste 0 -- -- 91
2017-12-05 04:00:00 -2.5 0 Calma 5 Oeste 0 -- -- 90
2017-12-05 03:00:00 -2.4 3 Oeste -- -- 0 -- -- 89
2017-12-05 02:00:00 -1.5 0 Calma 4 Este 0 -- -- 88
2017-12-05 01:00:00 -0.9 0 Calma 4 Oeste 0 -- -- 85
2017-12-05 00:00:00 -0.5 0 Calma 3 Norte 0 -- -- 83
2017-12-04 23:00:00 0.4 2 Oeste -- -- 0 -- -- 80
2017-12-04 22:00:00 0.4 3 Oeste 5 Sudoeste 0 -- -- 79
2017-12-04 21:00:00 1.6 5 Sudoeste 13 Sudoeste 0 -- -- 75
2017-12-04 20:00:00 2.8 6 Sudoeste 8 Sur 0 -- -- 72
2017-12-04 19:00:00 3.5 3 Sudoeste 9 Sudoeste 0 -- -- 70
2017-12-04 18:00:00 4.7 4 Nordeste 13 Oeste 0 -- -- 66
2017-12-04 17:00:00 7 4 Sudoeste 12 Noroeste 0 -- -- 56
2017-12-04 16:00:00 9.7 7 Norte 16 Noroeste 0 -- -- 49
2017-12-04 15:00:00 8.9 10 Nordeste 17 Norte 0 -- -- 52
2017-12-04 14:00:00 9 8 Norte 15 Norte 0 -- -- 52
2017-12-04 13:00:00 7.4 5 Noroeste 12 Noroeste 0 -- -- 55
2017-12-04 12:00:00 6.2 4 Nordeste 8 Este 0 -- -- 60
2017-12-04 11:00:00 3.9 3 Este 6 Sudeste 0 -- -- 69
2017-12-04 10:00:00 1 0 Calma 5 Noroeste 0 -- -- 77
2017-12-04 09:00:00 -1.3 0 Calma 4 Oeste 0 -- -- 85
2017-12-04 08:00:00 -1.6 0 Calma 4 Oeste 0 -- -- 84
2017-12-04 07:00:00 -1.3 2 Norte 4 Noroeste 0 -- -- 82
2017-12-04 06:00:00 -0.8 3 Noroeste 6 Sudoeste 0 -- -- 79
2017-12-04 05:00:00 -0.2 3 Este 6 Noroeste 0 -- -- 77
2017-12-04 04:00:00 -0.5 3 Oeste 6 Sur 0 -- -- 74
2017-12-04 03:00:00 0.4 3 Oeste 5 Oeste 0 -- -- 73
2017-12-04 02:00:00 0.4 4 Sudoeste 6 Sudoeste 0 -- -- 72
2017-12-04 01:00:00 2.1 4 Sudoeste 8 Noroeste 0 -- -- 67
2017-12-04 00:00:00 2.7 3 Noroeste 12 Sur 0 -- -- 64
2017-12-03 23:00:00 1.9 4 Oeste 21 Noroeste 0 -- -- 66
2017-12-03 22:00:00 2.4 8 Sudeste 22 Noroeste 0 -- -- 64
2017-12-03 21:00:00 3.8 18 Noroeste 36 Noroeste 0 -- -- 59
2017-12-03 20:00:00 3.9 23 Noroeste 36 Noroeste 0 -- -- 56
2017-12-03 19:00:00 2.8 8 Noroeste 24 Noroeste 0 -- -- 50
2017-12-03 18:00:00 3.2 15 Noroeste 33 Noroeste 0 -- -- 45
2017-12-03 17:00:00 3.3 22 Noroeste 41 Noroeste 0 -- -- 35
2017-12-03 16:00:00 4 26 Noroeste 45 Noroeste 0 -- -- 30
2017-12-03 15:00:00 4.2 26 Noroeste 38 Noroeste 0 -- -- 25
2017-12-03 14:00:00 4.5 26 Noroeste 38 Noroeste 0 -- -- 24
2017-12-03 13:00:00 6.5 24 Norte 38 Norte 0 -- -- 21
2017-12-03 12:00:00 6.9 23 Norte 33 Noroeste 0 -- -- 20
2017-12-03 11:00:00 4.1 10 Noroeste 18 Norte 0 -- -- 26
2017-12-03 10:00:00 2.1 9 Sudeste 13 Sudeste 0 -- -- 32
2017-12-03 09:00:00 0 2 Noroeste 9 Noroeste 0 -- -- 35
2017-12-03 08:00:00 -0.6 5 Norte 15 Noroeste 0 -- -- 32
2017-12-03 07:00:00 -0.9 0 Calma 12 Sudoeste 0 -- -- 33
2017-12-03 06:00:00 -0.9 10 Sudeste 33 Noroeste 0 -- -- 37
2017-12-03 05:00:00 -0.1 22 Noroeste 34 Noroeste 0 -- -- 35
2017-12-03 04:00:00 -0.2 25 Noroeste 40 Noroeste 0 -- -- 39
2017-12-03 03:00:00 -0.3 24 Noroeste 37 Noroeste 0 -- -- 40
2017-12-03 02:00:00 -0.4 21 Noroeste 40 Noroeste 0 -- -- 41
2017-12-03 01:00:00 -0.4 22 Noroeste 41 Noroeste 0 -- -- 41
2017-12-03 00:00:00 0.1 29 Noroeste 48 Noroeste 0 -- -- 39
2017-12-02 23:00:00 -0.1 29 Noroeste 52 Noroeste 0 -- -- 40
2017-12-02 22:00:00 -0.2 33 Noroeste 49 Noroeste 0 -- -- 40
2017-12-02 21:00:00 -0.6 34 Noroeste 54 Noroeste 0 -- -- 47
2017-12-02 20:00:00 -0.7 36 Noroeste 62 Noroeste 0 -- -- 50
2017-12-02 19:00:00 -0.9 34 Noroeste 53 Noroeste 0 -- -- 56
2017-12-02 18:00:00 -1 40 Noroeste 59 Noroeste 0 -- -- 58
2017-12-02 17:00:00 -0.3 41 Noroeste 68 Noroeste 0 -- -- 60
2017-12-02 16:00:00 1.8 41 Noroeste 68 Noroeste 0 -- -- 54
2017-12-02 15:00:00 2.6 39 Noroeste 57 Noroeste 0 -- -- 52
2017-12-02 14:00:00 3 31 Noroeste 54 Noroeste 0 -- -- 50
2017-12-02 13:00:00 2.1 32 Noroeste 48 Noroeste 0 -- -- 53
2017-12-02 12:00:00 1 36 Noroeste 50 Noroeste 0 -- -- 61
2017-12-02 11:00:00 0.1 30 Noroeste 52 Noroeste 0 -- -- 64
2017-12-02 10:00:00 -1.1 31 Noroeste 48 Noroeste 0 -- -- 68
2017-12-02 09:00:00 -2.1 32 Noroeste 53 Noroeste 0 -- -- 70
2017-12-02 08:00:00 -2.2 31 Noroeste 47 Norte 0 -- -- 71
2017-12-02 07:00:00 -1.9 31 Noroeste 52 Noroeste 0 -- -- 70
2017-12-02 06:00:00 -1.3 30 Noroeste 49 Noroeste 0 -- -- 67
2017-12-02 05:00:00 -1.1 30 Noroeste 51 Norte 0 -- -- 70
2017-12-02 04:00:00 -0.7 30 Noroeste 41 Noroeste 0 -- -- 74
2017-12-02 03:00:00 -0.4 26 Noroeste 42 Noroeste 0 -- -- 72
2017-12-02 02:00:00 -0.1 29 Noroeste 45 Noroeste 0 -- -- 69
2017-12-02 01:00:00 0 31 Noroeste 44 Noroeste 0 -- -- 73
2017-12-02 00:00:00 -0.5 23 Noroeste 41 Noroeste 0 -- -- 81
2017-12-01 23:00:00 -0.3 25 Noroeste 38 Noroeste 0 -- -- 77
2017-12-01 22:00:00 -0.6 29 Noroeste 40 Noroeste 0 -- -- 77
2017-12-01 21:00:00 -0.3 30 Noroeste 41 Noroeste 0 -- -- 67
2017-12-01 20:00:00 -0.7 24 Noroeste 38 Noroeste 0 -- -- 67
2017-12-01 19:00:00 -0.8 25 Noroeste 39 Noroeste 0 -- -- 68
2017-12-01 18:00:00 -0.9 22 Noroeste 40 Noroeste 0 -- -- 64
2017-12-01 17:00:00 -0.1 29 Noroeste 43 Noroeste 0 -- -- 60
2017-12-01 16:00:00 1.4 27 Noroeste 50 Noroeste 0 -- -- 58
2017-12-01 15:00:00 1.7 34 Noroeste 50 Noroeste 0 -- -- 55
2017-12-01 14:00:00 1.8 35 Noroeste 53 Noroeste 0 -- -- 53
2017-12-01 13:00:00 1.7 31 Noroeste 51 Norte 0 -- -- 59
2017-12-01 12:00:00 1.5 31 Noroeste 46 Noroeste 0 -- -- 62
2017-12-01 11:00:00 0.3 17 Noroeste 27 Noroeste 0 -- -- 74
2017-12-01 10:00:00 0 20 Noroeste 45 Noroeste 0 -- -- 83
2017-12-01 09:00:00 0.7 33 Noroeste 46 Noroeste 0.2 -- -- 91
2017-12-01 08:00:00 0.1 4 Nordeste 12 Nordeste 0.4 -- -- 94
2017-12-01 07:00:00 0.5 4 Norte 30 Oeste 0.6 -- -- 92
2017-12-01 06:00:00 1.6 9 Noroeste 34 Oeste 0 -- -- 89
2017-12-01 05:00:00 1.4 10 Noroeste 47 Noroeste 0.2 -- -- 91
2017-12-01 04:00:00 2 29 Oeste 38 Noroeste 0 -- -- 87
2017-12-01 03:00:00 2.1 22 Noroeste 36 Noroeste 0 -- -- 86
2017-12-01 02:00:00 2 14 Noroeste 21 Noroeste -- -- -- 89
2017-12-01 01:00:00 1.9 17 Noroeste 28 Noroeste 0 -- -- 88
2017-12-01 00:00:00 2 10 Noroeste 26 Noroeste 0 -- -- 89
2017-11-30 23:00:00 2.1 17 Noroeste 24 Noroeste 0 -- -- 87
2017-11-30 22:00:00 2.5 16 Oeste 26 Noroeste 0 -- -- 83
2017-11-30 21:00:00 2.6 4 Norte 21 Noroeste 0 -- -- 81
2017-11-30 20:00:00 2.6 17 Noroeste 28 Noroeste 0 -- -- 81
2017-11-30 19:00:00 2.1 19 Oeste 28 Oeste 0 -- -- 75
2017-11-30 18:00:00 3.6 16 Noroeste 36 Noroeste 0 -- -- 65
2017-11-30 17:00:00 4.2 29 Noroeste 40 Noroeste 0 -- -- 54
2017-11-30 16:00:00 6.1 28 Noroeste 42 Noroeste 0 -- -- 49
2017-11-30 15:00:00 6.5 28 Noroeste 40 Noroeste 0 -- -- 46
2017-11-30 14:00:00 6.2 33 Noroeste 44 Noroeste 0 -- -- 43
2017-11-30 13:00:00 6.1 34 Noroeste 51 Noroeste 0 -- -- 45
2017-11-30 12:00:00 5.6 30 Noroeste 42 Noroeste 0 -- -- 46
2017-11-30 11:00:00 4.5 24 Noroeste 41 Noroeste 0 -- -- 50
2017-11-30 10:00:00 2.9 18 Noroeste 28 Noroeste 0 -- -- 54
2017-11-30 09:00:00 0.9 22 Oeste 30 Noroeste 0 -- -- 62
2017-11-30 08:00:00 -0.3 18 Noroeste 25 Noroeste 0 -- -- 65
2017-11-30 07:00:00 -0.9 10 Noroeste 17 Noroeste 0 -- -- 62
2017-11-30 06:00:00 -0.8 4 Oeste 11 Noroeste 0 -- -- 59
2017-11-30 05:00:00 -0.4 3 Norte 30 Noroeste 0 -- -- 59
2017-11-30 04:00:00 0 16 Noroeste 24 Noroeste 0 -- -- 59
2017-11-30 03:00:00 0.6 17 Noroeste 27 Noroeste 0 -- -- 61
2017-11-30 02:00:00 0.8 17 Noroeste 33 Noroeste 0 -- -- 64
2017-11-30 01:00:00 1.5 26 Noroeste 37 Noroeste 0 -- -- 61
2017-11-30 00:00:00 2.1 27 Noroeste 40 Noroeste 0 -- -- 61
2017-11-29 23:00:00 2.1 23 Noroeste 42 Noroeste 0 -- -- 63
2017-11-29 22:00:00 2.4 26 Noroeste 36 Noroeste 0 -- -- 66
2017-11-29 21:00:00 2.5 24 Oeste 32 Oeste 0 -- -- 64
2017-11-29 20:00:00 2.5 16 Oeste 40 Noroeste 0 -- -- 63
2017-11-29 19:00:00 3.4 29 Noroeste 44 Noroeste 0 -- -- 60
2017-11-29 18:00:00 4.3 30 Noroeste 45 Noroeste 0 -- -- 60
2017-11-29 17:00:00 5.8 28 Noroeste 42 Noroeste 0 -- -- 59
2017-11-29 16:00:00 7.6 25 Noroeste 40 Noroeste 0 -- -- 51
2017-11-29 15:00:00 8.3 28 Noroeste 45 Noroeste 0 -- -- 49
2017-11-29 14:00:00 8.2 37 Noroeste 51 Noroeste 0 -- -- 47
2017-11-29 13:00:00 8.2 25 Noroeste 37 Noroeste 0 -- -- 57
2017-11-29 12:00:00 7.6 21 Noroeste 32 Noroeste 0 -- -- 60
2017-11-29 11:00:00 6.5 17 Noroeste 27 Noroeste 0 -- -- 64
2017-11-29 10:00:00 4.4 4 Sudeste 7 Sudeste 0 -- -- 71
2017-11-29 09:00:00 2.6 5 Sudeste 8 Sudeste 0 -- -- 77
2017-11-29 08:00:00 1.9 5 Sudeste 19 Noroeste 0 -- -- 76
2017-11-29 07:00:00 3.3 12 Noroeste 26 Oeste 0 -- -- 70
2017-11-29 06:00:00 3.9 21 Oeste 28 Oeste 0 -- -- 75
2017-11-29 05:00:00 2.1 3 Oeste 6 Sudeste 0 -- -- 87
2017-11-29 04:00:00 2.1 4 Sudoeste 7 Sudoeste 0 -- -- 87
2017-11-29 03:00:00 2.3 4 Sur 7 Nordeste 0 -- -- 85
2017-11-29 02:00:00 3.1 3 Sudoeste 6 Noroeste 0 -- -- 81
2017-11-29 01:00:00 3.4 3 Oeste 5 Sudoeste 0 -- -- 80
2017-11-29 00:00:00 3 3 Oeste 6 Nordeste 0 -- -- 80
2017-11-28 23:00:00 4.1 3 Sudoeste 5 Sudoeste 0 -- -- 77
2017-11-28 22:00:00 3.7 0 Calma 6 Sudoeste 0 -- -- 76
2017-11-28 21:00:00 3.1 3 Sudoeste 6 Oeste 0 -- -- 77
2017-11-28 20:00:00 3.7 3 Sudoeste 8 Sudoeste 0 -- -- 74
2017-11-28 19:00:00 4.6 4 Oeste 26 Oeste 0 -- -- 67
2017-11-28 18:00:00 6.7 23 Oeste 30 Oeste 0 -- -- 59
2017-11-28 17:00:00 7.4 19 Oeste 26 Noroeste 0 -- -- 58
2017-11-28 16:00:00 9.9 19 Noroeste 31 Noroeste 0 -- -- 50
2017-11-28 15:00:00 10 15 Noroeste 22 Noroeste 0 -- -- 51
2017-11-28 14:00:00 9.3 8 Norte 20 Noroeste 0 -- -- 53
2017-11-28 13:00:00 6.9 5 Noroeste 8 Noroeste 0 -- -- 57
2017-11-28 12:00:00 4.5 4 Este 6 Este 0 -- -- 64
2017-11-28 11:00:00 1.8 2 Norte 6 Este 0 -- -- 76
2017-11-28 10:00:00 0.1 3 Este 5 Sudeste 0 -- -- 83
2017-11-28 09:00:00 -1.8 0 Calma 5 Oeste 0 -- -- 90
2017-11-28 08:00:00 -2.9 0 Calma 4 Este 0 -- -- 89
2017-11-28 07:00:00 -2 0 Calma 5 Noroeste 0 -- -- 89
2017-11-28 06:00:00 -2.1 0 Calma 4 Sudoeste 0 -- -- 85
2017-11-28 05:00:00 -1.8 3 Oeste 4 Oeste 0 -- -- 84
2017-11-28 04:00:00 -0.7 2 Sur 3 Este 0 -- -- 83
2017-11-28 03:00:00 0.3 3 Este 5 Sudoeste 0 -- -- 79
2017-11-28 02:00:00 0.2 3 Oeste 6 Noroeste -- -- -- 79
2017-11-28 01:00:00 1 3 Este 5 Oeste 0 -- -- 76
2017-11-28 00:00:00 0.8 4 Oeste 5 Sudoeste 0 -- -- 77
2017-11-27 23:00:00 1.5 0 Calma 5 Este 0 -- -- 75
2017-11-27 22:00:00 2.1 5 Noroeste 6 Noroeste 0 -- -- 72
2017-11-27 21:00:00 3.3 2 Nordeste 4 Nordeste 0 -- -- 66
2017-11-27 20:00:00 3.6 0 Calma 4 Oeste 0 -- -- 64
2017-11-27 19:00:00 4.3 3 Norte 7 Sudeste 0 -- -- 62
2017-11-27 18:00:00 5.6 4 Sur 8 Sudoeste 0 -- -- 59
2017-11-27 17:00:00 6.9 3 Sudoeste 6 Noroeste 0 -- -- 54
2017-11-27 16:00:00 9.3 3 Norte 13 Noroeste 0 -- -- 45
2017-11-27 15:00:00 9 3 Noroeste 8 Noroeste 0 -- -- 48
2017-11-27 14:00:00 7.9 3 Noroeste 6 Norte 0 -- -- 50
2017-11-27 13:00:00 6.5 3 Noroeste 6 Noroeste 0 -- -- 58
2017-11-27 12:00:00 4.1 4 Sudeste 7 Nordeste 0 -- -- 66
2017-11-27 11:00:00 1.9 0 Calma 7 Este 0 -- -- 77
2017-11-27 10:00:00 -0.9 2 Norte 5 Sudoeste 0 -- -- 84
2017-11-27 09:00:00 -1.8 0 Calma 4 Oeste 0 -- -- 84
2017-11-27 08:00:00 -2.2 0 Calma 6 Sur 0 -- -- 83
2017-11-27 07:00:00 -1.8 2 Sudoeste 4 Nordeste 0 -- -- 84
2017-11-27 06:00:00 -1.4 3 Nordeste 4 Norte 0 -- -- 81
2017-11-27 05:00:00 -1.5 3 Noroeste 5 Oeste 0 -- -- 83
2017-11-27 04:00:00 -0.7 0 Calma 4 Oeste 0 -- -- 78
2017-11-27 03:00:00 -0.5 3 Noroeste 5 Sudoeste 0 -- -- 77
2017-11-27 02:00:00 0.2 3 Oeste 6 Oeste 0 -- -- 75
2017-11-27 01:00:00 0.9 3 Nordeste 4 Nordeste 0 -- -- 73
2017-11-27 00:00:00 1.3 0 Calma 4 Norte 0 -- -- 70
2017-11-26 23:00:00 1.8 3 Noroeste 6 Noroeste 0 -- -- 68
2017-11-26 22:00:00 3.2 2 Sudeste 6 Norte 0 -- -- 62
2017-11-26 21:00:00 3.8 3 Norte 22 Noroeste 0 -- -- 59
2017-11-26 20:00:00 2.8 8 Oeste 15 Oeste 0 -- -- 63
2017-11-26 19:00:00 3.7 8 Oeste 23 Noroeste 0 -- -- 61
2017-11-26 18:00:00 4.8 19 Noroeste 33 Noroeste 0 -- -- 58
2017-11-26 17:00:00 6 24 Noroeste 46 Noroeste 0 -- -- 55
2017-11-26 16:00:00 7.6 27 Noroeste 55 Noroeste 0 -- -- 52
2017-11-26 15:00:00 8 34 Noroeste 55 Noroeste 0 -- -- 49
2017-11-26 14:00:00 8.5 34 Noroeste 54 Noroeste 0 -- -- 49
2017-11-26 13:00:00 8.1 37 Noroeste 53 Noroeste 0 -- -- 47
2017-11-26 12:00:00 7.9 28 Noroeste 45 Norte 0 -- -- 47
2017-11-26 11:00:00 6.9 31 Noroeste 42 Oeste 0 -- -- 49
2017-11-26 10:00:00 5.8 28 Noroeste 42 Noroeste 0 -- -- 57
2017-11-26 09:00:00 4.5 27 Noroeste 40 Noroeste 0 -- -- 65
2017-11-26 08:00:00 3.7 25 Noroeste 40 Noroeste 0 -- -- 69
2017-11-26 07:00:00 3.8 26 Noroeste 39 Noroeste 0 -- -- 66
2017-11-26 06:00:00 3.9 27 Noroeste 38 Noroeste 0 -- -- 62
2017-11-26 05:00:00 3.8 28 Noroeste 40 Noroeste 0 -- -- 65
2017-11-26 04:00:00 3.9 28 Noroeste 40 Noroeste 0 -- -- 66
2017-11-26 03:00:00 3.9 25 Noroeste 41 Noroeste 0 -- -- 68
2017-11-26 02:00:00 4 28 Noroeste 46 Noroeste 0 -- -- 65
2017-11-26 01:00:00 4.1 32 Noroeste 47 Noroeste 0 -- -- 64
2017-11-26 00:00:00 4.1 28 Noroeste 48 Noroeste 0 -- -- 62
2017-11-25 23:00:00 4.4 28 Noroeste 46 Noroeste 0 -- -- 60
2017-11-25 22:00:00 4.5 29 Noroeste 49 Noroeste 0 -- -- 57
2017-11-25 21:00:00 4.7 37 Noroeste 51 Noroeste 0 -- -- 58
2017-11-25 20:00:00 5 34 Noroeste 50 Noroeste 0 -- -- 57
2017-11-25 19:00:00 5.5 28 Noroeste 64 Noroeste 0 -- -- 63
2017-11-25 18:00:00 6.1 34 Noroeste 53 Noroeste 0 -- -- 59
2017-11-25 17:00:00 6.7 40 Noroeste 57 Noroeste 0 -- -- 63
2017-11-25 16:00:00 9.1 33 Noroeste 55 Noroeste 0 -- -- 58
2017-11-25 15:00:00 9.7 35 Noroeste 63 Noroeste 0 -- -- 59
2017-11-25 14:00:00 10.2 39 Noroeste 61 Noroeste 0 -- -- 59
2017-11-25 13:00:00 10.9 36 Noroeste 58 Noroeste 0 -- -- 66
2017-11-25 12:00:00 10.7 37 Noroeste 53 Noroeste 0 -- -- 67
2017-11-25 11:00:00 10.9 35 Noroeste 51 Noroeste 0 -- -- 71
2017-11-25 10:00:00 10 32 Noroeste 40 Noroeste 0 -- -- 74
2017-11-25 09:00:00 9.3 31 Noroeste 44 Noroeste 0 -- -- 81
2017-11-25 08:00:00 8.8 24 Noroeste 32 Noroeste 0 -- -- 86
2017-11-25 07:00:00 8.5 12 Oeste 17 Noroeste 0.2 -- -- 90
2017-11-25 06:00:00 8.9 11 Noroeste 18 Noroeste 0.6 -- -- 93
2017-11-25 05:00:00 9 9 Noroeste 15 Oeste 0.8 -- -- 92
2017-11-25 04:00:00 9.3 3 Noroeste 12 Sur 0 -- -- 88
2017-11-25 03:00:00 9.3 3 Este 13 Este 0 -- -- 88
2017-11-25 02:00:00 9.2 3 Sudeste 15 Sudeste 0 -- -- 90
2017-11-25 01:00:00 9.6 5 Sudeste 19 Sur 0.4 -- -- 84
2017-11-25 00:00:00 9.7 7 Sudeste 25 Sur 0.4 -- -- 83
2017-11-24 23:00:00 11.3 10 Sur 19 Sur 0 -- -- 69
2017-11-24 22:00:00 10.6 8 Sur 15 Sur 0 -- -- 73
2017-11-24 21:00:00 10.5 5 Sudeste 12 Sudeste 0 -- -- 73
2017-11-24 20:00:00 10.4 4 Sudoeste 6 Oeste 0 -- -- 75
2017-11-24 19:00:00 10.8 2 Sur 10 Nordeste 0 -- -- 78
2017-11-24 18:00:00 11.4 9 Sudoeste 14 Sudoeste 0 -- -- 75
2017-11-24 17:00:00 12.5 5 Sudoeste 14 Sudeste 0.2 -- -- 69
2017-11-24 16:00:00 13.8 3 Sudoeste 19 Sudeste 0 -- -- 52
2017-11-24 15:00:00 14.2 11 Sur 19 Sudoeste 0 -- -- 49
2017-11-24 14:00:00 14.4 9 Sur 18 Sur 0 -- -- 49
2017-11-24 13:00:00 13.8 10 Sur 17 Sur 0 -- -- 54
2017-11-24 12:00:00 14.3 9 Sudeste 16 Sudeste 0 -- -- 47
2017-11-24 11:00:00 12.3 2 Sur 22 Sur 0 -- -- 53
2017-11-24 10:00:00 11.7 11 Sur 19 Sur 0 -- -- 53
2017-11-24 09:00:00 11.3 3 Noroeste 7 Sur 0 -- -- 56
2017-11-24 08:00:00 11.4 6 Este 23 Sur 0 -- -- 55
2017-11-24 07:00:00 11.6 16 Sur 23 Sudeste 0 -- -- 52
2017-11-24 06:00:00 11.5 14 Sur 23 Sur 0 -- -- 55
2017-11-24 05:00:00 11.4 18 Sur 28 Sur 0 -- -- 55
2017-11-24 04:00:00 12.1 13 Sur 22 Sur 0 -- -- 48
2017-11-24 03:00:00 12.3 18 Sur 27 Sur 0 -- -- 47
2017-11-24 02:00:00 11.7 8 Sudeste 22 Sudeste 0 -- -- 49
2017-11-24 01:00:00 11.4 14 Sudeste 28 Sudeste 0 -- -- 50
2017-11-24 00:00:00 11.4 17 Sudeste 28 Sudeste 0 -- -- 50
2017-11-23 23:00:00 12.6 15 Sur 28 Sur 0 -- -- 46
2017-11-23 22:00:00 11.4 8 Sudeste 21 Este 0 -- -- 49
2017-11-23 21:00:00 12.5 5 Sudeste 15 Este 0 -- -- 45
2017-11-23 20:00:00 12.9 9 Sur 17 Sur 0 -- -- 44
2017-11-23 19:00:00 12.8 6 Este 15 Sur 0 -- -- 44
2017-11-23 18:00:00 13.5 3 Sudeste 21 Sur 0 -- -- 43
2017-11-23 17:00:00 14.6 8 Sudeste 18 Sur 0 -- -- 41
2017-11-23 16:00:00 16.9 8 Sur 17 Sudeste 0 -- -- 35
2017-11-23 15:00:00 16.8 10 Sur 19 Sur 0 -- -- 35
2017-11-23 14:00:00 16.5 13 Sudeste 23 Este 0 -- -- 36
2017-11-23 13:00:00 15.6 17 Sur 27 Sudeste 0 -- -- 37
2017-11-23 12:00:00 13.7 8 Sudeste 33 Sur 0 -- -- 40
2017-11-23 11:00:00 12.3 26 Sur 39 Sur 0 -- -- 42
2017-11-23 10:00:00 11.5 24 Sur 35 Sur 0 -- -- 43
2017-11-23 09:00:00 10.3 24 Sur 34 Sur 0 -- -- 45
2017-11-23 08:00:00 10.1 23 Sur 37 Sur 0 -- -- 43
2017-11-23 07:00:00 10.5 23 Sur 35 Sur 0 -- -- 42
2017-11-23 06:00:00 10 23 Sur 35 Sur 0 -- -- 44
2017-11-23 05:00:00 10 15 Sudeste 28 Sur 0 -- -- 43
2017-11-23 04:00:00 10 9 Sur 24 Sur 0 -- -- 43
2017-11-23 03:00:00 10 17 Sur 28 Sur 0 -- -- 41
2017-11-23 02:00:00 9.4 14 Sudeste 30 Sudeste 0 -- -- 44
2017-11-23 01:00:00 8.9 9 Este 31 Sur 0 -- -- 46
2017-11-23 00:00:00 9.2 11 Sudeste 32 Sur 0 -- -- 47
2017-11-22 23:00:00 10.3 25 Sur 36 Sur 0 -- -- 47
2017-11-22 22:00:00 10.8 30 Sur 41 Sur 0 -- -- 47
2017-11-22 21:00:00 10.3 11 Sudeste 34 Sur 0 -- -- 49
2017-11-22 20:00:00 11 23 Sur 33 Sur 0 -- -- 47
2017-11-22 19:00:00 10.5 20 Sudeste 31 Sudeste 0 -- -- 52
2017-11-22 18:00:00 12.5 5 Sudoeste 25 Sur 0 -- -- 41
2017-11-22 17:00:00 14.4 18 Sur 30 Sur 0 -- -- 35
2017-11-22 16:00:00 16 17 Sur 31 Sur 0 -- -- 31
2017-11-22 15:00:00 16.5 23 Sur 34 Sur 0 -- -- 28
2017-11-22 14:00:00 16.2 25 Sur 38 Sur 0 -- -- 32
2017-11-22 13:00:00 15.2 22 Sur 33 Sur 0 -- -- 36
2017-11-22 12:00:00 14.2 10 Sudeste 30 Sudeste 0 -- -- 44
2017-11-22 11:00:00 10.1 5 Este 12 Sur 0 -- -- 54
2017-11-22 10:00:00 5.7 4 Sudeste 8 Sudeste 0 -- -- 64
2017-11-22 09:00:00 2.7 6 Noroeste 21 Sudeste 0 -- -- 75
2017-11-22 08:00:00 2.2 6 Sudeste 10 Sudeste 0 -- -- 75
2017-11-22 07:00:00 3.2 4 Norte 14 Este 0 -- -- 72
2017-11-22 06:00:00 4.6 9 Este 15 Sudeste 0 -- -- 66
2017-11-22 05:00:00 5 9 Sudeste 17 Sur 0 -- -- 66
2017-11-22 04:00:00 4.9 6 Sudoeste 24 Sur 0 -- -- 67
2017-11-22 03:00:00 9 19 Sur 27 Sur 0 -- -- 53
2017-11-22 02:00:00 9.3 17 Sur 26 Sur 0 -- -- 53
2017-11-22 01:00:00 5.7 9 Sur 19 Sur 0 -- -- 66
2017-11-22 00:00:00 5.4 4 Sur 10 Sur 0 -- -- 70
2017-11-21 23:00:00 5.7 2 Nordeste 8 Sudoeste 0 -- -- 67
2017-11-21 22:00:00 6.4 0 Calma 4 Oeste 0 -- -- 65
2017-11-21 21:00:00 6.9 0 Calma 5 Sudoeste 0 -- -- 62
2017-11-21 20:00:00 8.1 4 Oeste 6 Noroeste 0 -- -- 57
2017-11-21 19:00:00 9.8 3 Sur 7 Sudoeste 0 -- -- 51
2017-11-21 18:00:00 10.6 3 Oeste 8 Sudoeste 0 -- -- 52
2017-11-21 17:00:00 13.5 4 Sudoeste 8 Sudoeste 0 -- -- 43
2017-11-21 16:00:00 16.1 4 Sudoeste 8 Noroeste 0 -- -- 42
2017-11-21 15:00:00 16.2 3 Norte 6 Nordeste 0 -- -- 39
2017-11-21 14:00:00 15 3 Norte 7 Noroeste 0 -- -- 42
2017-11-21 13:00:00 12.6 3 Sudeste 6 Este 0 -- -- 50
2017-11-21 12:00:00 10.3 3 Este 7 Este 0 -- -- 57
2017-11-21 11:00:00 7.7 4 Nordeste 7 Este 0 -- -- 63
2017-11-21 10:00:00 5 0 Calma 6 Este 0 -- -- 74
2017-11-21 09:00:00 3.1 0 Calma 5 Sudoeste 0 -- -- 79
2017-11-21 08:00:00 1.2 2 Este 4 Oeste 0 -- -- 82
2017-11-21 07:00:00 1.3 0 Calma 3 Nordeste 0 -- -- 81
2017-11-21 06:00:00 2 0 Calma 4 Noroeste 0 -- -- 81
2017-11-21 05:00:00 2.9 2 Este 4 Sudeste 0 -- -- 78
2017-11-21 04:00:00 2.8 0 Calma 5 Sudoeste 0 -- -- 77
2017-11-21 03:00:00 3.2 0 Calma 5 Nordeste 0 -- -- 76
2017-11-21 02:00:00 3.7 2 Nordeste 5 Nordeste 0 -- -- 74
2017-11-21 01:00:00 4.4 0 Calma 4 Sudoeste 0 -- -- 71
2017-11-21 00:00:00 5 0 Calma 4 Este 0 -- -- 67
2017-11-20 23:00:00 5.8 0 Calma 5 Noroeste 0 -- -- 66
2017-11-20 22:00:00 6.3 2 Noroeste 4 Noroeste 0 -- -- 64
2017-11-20 21:00:00 7.6 2 Oeste 4 Oeste 0 -- -- 59
2017-11-20 20:00:00 8.5 0 Calma 9 Sur 0 -- -- 57
2017-11-20 19:00:00 9.8 4 Sudoeste 9 Sudoeste 0 -- -- 52
2017-11-20 18:00:00 11.8 3 Sudeste 8 Este 0 -- -- 46
2017-11-20 17:00:00 14.4 2 Este 5 Este 0 -- -- 40
2017-11-20 16:00:00 16.4 2 Norte 8 Noroeste 0 -- -- 34
2017-11-20 15:00:00 16 2 Norte 8 Norte 0 -- -- 36
2017-11-20 14:00:00 14.6 3 Norte 8 Noroeste 0 -- -- 39
2017-11-20 13:00:00 13 3 Nordeste 6 Nordeste 0 -- -- 45
2017-11-20 12:00:00 10.1 3 Sudeste 8 Este 0 -- -- 50
2017-11-20 11:00:00 7.7 2 Oeste 6 Este 0 -- -- 57
2017-11-20 10:00:00 4.6 2 Este 5 Este 0 -- -- 66
2017-11-20 09:00:00 2.5 0 Calma 6 Sudoeste 0 -- -- 70
2017-11-20 08:00:00 0 2 Noroeste 5 Norte 0 -- -- 78
2017-11-20 07:00:00 1.3 0 Calma 6 Nordeste 0 -- -- 74
2017-11-20 06:00:00 1.2 0 Calma 4 Oeste 0 -- -- 74
2017-11-20 05:00:00 1.6 0 Calma 4 Este 0 -- -- 73
2017-11-20 04:00:00 1.6 2 Nordeste 5 Sudoeste 0 -- -- 72
2017-11-20 03:00:00 2.2 2 Sudoeste 5 Este 0 -- -- 71
2017-11-20 02:00:00 2.3 4 Oeste 5 Oeste 0 -- -- 71
2017-11-20 01:00:00 3 5 Sudoeste 6 Sudoeste 0 -- -- 70
2017-11-20 00:00:00 4 4 Sudoeste 5 Sudoeste 0 -- -- 66
2017-11-19 23:00:00 5 3 Oeste 5 Sudoeste 0 -- -- 63
2017-11-19 22:00:00 5.5 3 Oeste 4 Oeste 0 -- -- 61
2017-11-19 21:00:00 6.3 2 Noroeste 7 Sudoeste 0 -- -- 58
2017-11-19 20:00:00 7.5 4 Sudoeste 8 Sur 0 -- -- 54
2017-11-19 19:00:00 7.9 4 Sur 8 Sudoeste 0 -- -- 52
2017-11-19 18:00:00 9.9 5 Sur 7 Sudoeste 0 -- -- 47
2017-11-19 17:00:00 11.8 4 Sudoeste 8 Sudoeste 0 -- -- 44
2017-11-19 16:00:00 14.5 4 Norte 8 Noroeste 0 -- -- 36
2017-11-19 15:00:00 13.8 2 Este 8 Noroeste 0 -- -- 35
2017-11-19 14:00:00 13.2 4 Nordeste 9 Nordeste 0 -- -- 38
2017-11-19 13:00:00 11.2 3 Norte 8 Este 0 -- -- 38
2017-11-19 12:00:00 8.6 3 Este 8 Este 0 -- -- 64
2017-11-19 11:00:00 5.8 3 Este 7 Este 0 -- -- 75
2017-11-19 10:00:00 2.8 2 Oeste 3 Sudeste 0 -- -- 83
2017-11-19 09:00:00 1.4 2 Sudeste 4 Este 0 -- -- 90
2017-11-19 08:00:00 -0.7 0 Calma 4 Este 0 -- -- 90
2017-11-19 07:00:00 -0.2 0 Calma 5 Este 0 -- -- 92
2017-11-19 06:00:00 0.5 0 Calma 6 Sudoeste 0 -- -- 90
2017-11-19 05:00:00 0.8 3 Este 4 Oeste 0 -- -- 89
2017-11-19 04:00:00 0.5 0 Calma 5 Este 0 -- -- 85
2017-11-19 03:00:00 1.6 4 Noroeste 8 Sur 0 -- -- 83
2017-11-19 02:00:00 2.3 2 Sudeste 4 Nordeste 0 -- -- 85
2017-11-19 01:00:00 2.8 0 Calma 6 Oeste 0 -- -- 83
2017-11-19 00:00:00 3.6 2 Norte 4 Oeste 0 -- -- 80
2017-11-18 23:00:00 4.6 2 Norte 6 Oeste 0 -- -- 77
2017-11-18 22:00:00 5.1 3 Noroeste 10 Sudoeste 0 -- -- 76
2017-11-18 21:00:00 7.1 7 Sudoeste 9 Sudoeste 0 -- -- 69
2017-11-18 20:00:00 7.8 3 Oeste 9 Sur 0 -- -- 68
2017-11-18 19:00:00 8.9 6 Sur 8 Sudeste 0 -- -- 66
2017-11-18 18:00:00 10.5 3 Este 11 Oeste 0 -- -- 58
2017-11-18 17:00:00 13 9 Oeste 15 Noroeste 0 -- -- 52
2017-11-18 16:00:00 15.8 7 Norte 13 Noroeste 0 -- -- 42
2017-11-18 15:00:00 15.6 6 Norte 13 Noroeste 0 -- -- 42
2017-11-18 14:00:00 14.6 5 Noroeste 10 Noroeste 0 -- -- 44
2017-11-18 13:00:00 13.3 4 Nordeste 9 Este 0 -- -- 47
2017-11-18 12:00:00 11.6 4 Este 7 Este 0 -- -- 52
2017-11-18 11:00:00 8.4 4 Sudeste 6 Este 0 -- -- 64
2017-11-18 10:00:00 5.9 3 Sudeste 5 Sudoeste 0 -- -- 74
2017-11-18 09:00:00 3.4 0 Calma 5 Sudoeste 0 -- -- 77
2017-11-18 08:00:00 2.2 0 Calma 4 Noroeste 0 -- -- 83
2017-11-18 07:00:00 2.3 0 Calma 4 Este 0 -- -- 81
2017-11-18 06:00:00 2.9 0 Calma 5 Noroeste 0 -- -- 80
2017-11-18 05:00:00 3.4 0 Calma 3 Este 0 -- -- 77
2017-11-18 04:00:00 3.6 0 Calma 4 Sudoeste 0 -- -- 76
2017-11-18 03:00:00 4.3 2 Este 4 Este 0 -- -- 73
2017-11-18 02:00:00 4.5 0 Calma 4 Oeste 0 -- -- 74
2017-11-18 01:00:00 5.5 2 Norte -- -- 0 -- -- 70
2017-11-18 00:00:00 6.2 5 Noroeste 6 Noroeste 0 -- -- 66
2017-11-17 23:00:00 7.8 4 Sudoeste 6 Sudoeste 0 -- -- 61
2017-11-17 22:00:00 8.2 0 Calma 9 Sudoeste 0 -- -- 62
2017-11-17 21:00:00 8.5 4 Oeste 6 Sudoeste 0 -- -- 60
2017-11-17 20:00:00 9.8 4 Sudoeste 8 Sudoeste 0 -- -- 57
2017-11-17 19:00:00 10.8 2 Sudoeste 8 Sudoeste 0 -- -- 53
2017-11-17 18:00:00 12 7 Sudoeste 9 Sudoeste 0 -- -- 50
2017-11-17 17:00:00 14.2 4 Sudoeste 6 Sudoeste 0 -- -- 46
2017-11-17 16:00:00 16.3 3 Sur 12 Noroeste 0 -- -- 37
2017-11-17 15:00:00 16.6 10 Norte 13 Norte 0 -- -- 36
2017-11-17 14:00:00 16.5 4 Nordeste 8 Este 0 -- -- 35
2017-11-17 13:00:00 14.5 3 Este 8 Este 0 -- -- 40
2017-11-17 12:00:00 10.7 3 Noroeste 6 Norte 0 -- -- 55
2017-11-17 11:00:00 8.4 0 Calma 4 Este 0 -- -- 59
2017-11-17 10:00:00 7.4 2 Oeste 5 Nordeste 0 -- -- 59
2017-11-17 09:00:00 4.6 0 Calma 4 Noroeste 0 -- -- 64
2017-11-17 08:00:00 3.1 2 Sur 5 Sur 0 -- -- 68
2017-11-17 07:00:00 3.3 4 Noroeste 8 Sudeste 0 -- -- 68
2017-11-17 06:00:00 3.7 0 Calma 5 Nordeste 0 -- -- 66
2017-11-17 05:00:00 3.5 0 Calma 3 Norte 0 -- -- 68
2017-11-17 04:00:00 4.2 0 Calma 7 Sudeste 0 -- -- 64
2017-11-17 03:00:00 4.5 4 Este 5 Este 0 -- -- 64
2017-11-17 02:00:00 5.4 2 Norte 5 Sudeste 0 -- -- 60
2017-11-17 01:00:00 6 3 Oeste 7 Noroeste 0 -- -- 58
2017-11-17 00:00:00 6.9 5 Noroeste 12 Sudoeste 0 -- -- 57
2017-11-16 23:00:00 8.7 8 Sur 11 Sur 0 -- -- 49
2017-11-16 22:00:00 7.6 3 Este 8 Sudeste 0 -- -- 55
2017-11-16 21:00:00 7.7 3 Oeste 6 Oeste 0 -- -- 55
2017-11-16 20:00:00 8.5 0 Calma 6 Oeste 0 -- -- 56
2017-11-16 19:00:00 9.2 3 Oeste 8 Sudeste 0 -- -- 55
2017-11-16 18:00:00 10.8 3 Sur 8 Sudoeste 0 -- -- 51
2017-11-16 17:00:00 13.4 2 Sudoeste 8 Sudoeste 0 -- -- 48
2017-11-16 16:00:00 15.1 6 Noroeste 9 Noroeste 0 -- -- 40
2017-11-16 15:00:00 15.2 3 Nordeste 11 Noroeste 0 -- -- 41
2017-11-16 14:00:00 14.1 4 Norte 12 Noroeste 0 -- -- 44
2017-11-16 13:00:00 12.2 4 Norte 10 Noroeste 0 -- -- 49
2017-11-16 12:00:00 9.5 3 Norte 7 Noroeste 0 -- -- 56
2017-11-16 11:00:00 6.9 3 Este 7 Nordeste 0 -- -- 66
2017-11-16 10:00:00 3.8 0 Calma 5 Este 0 -- -- 73
2017-11-16 09:00:00 1.9 0 Calma 4 Oeste 0 -- -- 79
2017-11-16 08:00:00 -0.1 0 Calma 4 Este 0 -- -- 83
2017-11-16 07:00:00 0.4 3 Sur 5 Sudoeste 0 -- -- 82
2017-11-16 06:00:00 0.6 3 Sudeste 4 Sudeste 0 -- -- 81
2017-11-16 05:00:00 0.6 3 Este 5 Este 0 -- -- 80
2017-11-16 04:00:00 1.4 3 Oeste 9 Sudeste 0 -- -- 78
2017-11-16 03:00:00 2.3 2 Este 7 Sur 0 -- -- 75
2017-11-16 02:00:00 2 4 Nordeste 8 Este 0 -- -- 73
2017-11-16 01:00:00 3.6 0 Calma 6 Noroeste 0 -- -- 70
2017-11-16 00:00:00 4 0 Calma 5 Este 0 -- -- 66
2017-11-15 23:00:00 4.3 3 Oeste 5 Oeste 0 -- -- 65
2017-11-15 22:00:00 4.9 0 Calma 4 Oeste 0 -- -- 65
2017-11-15 21:00:00 5.4 0 Calma 5 Norte 0 -- -- 62
2017-11-15 20:00:00 6.3 0 Calma 8 Sudoeste 0 -- -- 59
2017-11-15 19:00:00 6.9 5 Sudoeste 8 Sudoeste 0 -- -- 60
2017-11-15 18:00:00 8.6 2 Oeste 5 Nordeste 0 -- -- 54
2017-11-15 17:00:00 10.8 4 Nordeste 8 Nordeste 0 -- -- 41
2017-11-15 16:00:00 12 3 Nordeste 7 Nordeste 0 -- -- 42
2017-11-15 15:00:00 12.3 3 Nordeste 10 Norte 0 -- -- 39
2017-11-15 14:00:00 11.9 4 Norte 8 Noroeste 0 -- -- 41
2017-11-15 13:00:00 10.2 2 Este 9 Noroeste 0 -- -- 48
2017-11-15 12:00:00 7.6 4 Nordeste 8 Este 0 -- -- 51
2017-11-15 11:00:00 4.9 3 Este 8 Este 0 -- -- 59
2017-11-15 10:00:00 1.3 0 Calma 7 Nordeste 0 -- -- 73
2017-11-15 09:00:00 -1.4 3 Este 7 Noroeste 0 -- -- 79
2017-11-15 08:00:00 -1.8 0 Calma 4 Noroeste 0 -- -- 80
2017-11-15 07:00:00 -1.2 3 Sudoeste 4 Sudoeste 0 -- -- 76
2017-11-15 06:00:00 -0.9 0 Calma 6 Sur 0 -- -- 76
2017-11-15 05:00:00 -0.4 4 Noroeste 5 Sudoeste 0 -- -- 73
2017-11-15 04:00:00 -1 0 Calma 6 Sudeste 0 -- -- 74
2017-11-15 03:00:00 0.1 2 Sur 5 Sudeste 0 -- -- 72
2017-11-15 02:00:00 0.1 3 Norte 5 Norte 0 -- -- 71
2017-11-15 01:00:00 0.8 0 Calma 6 Noroeste 0 -- -- 69
2017-11-15 00:00:00 1.5 3 Oeste 5 Noroeste 0 -- -- 65